createdAt,value
2023-05-09T00:00:11.138Z,101026.84
2023-05-09T00:03:15.165Z,101033.13
2023-05-09T00:06:17.531Z,101029.66
2023-05-09T00:09:20.026Z,101030.72
2023-05-09T00:12:22.462Z,101030.72
2023-05-09T00:15:25.970Z,101030.06
2023-05-09T00:18:29.944Z,101019.41
2023-05-09T00:21:32.576Z,101018.09
2023-05-09T00:24:35.267Z,101022.94
2023-05-09T00:27:37.915Z,101022.91
2023-05-09T00:30:40.124Z,101015.12
2023-05-09T00:33:42.667Z,101016.44
2023-05-09T00:36:44.859Z,101015.69
2023-05-09T00:39:48.558Z,101006.69
2023-05-09T00:42:51.528Z,101011.41
2023-05-09T00:45:54.122Z,101008.75
2023-05-09T00:48:56.464Z,101007.50
2023-05-09T00:51:58.979Z,101012.03
2023-05-09T00:55:02.643Z,101009.22
2023-05-09T00:58:05.471Z,101013.63
2023-05-09T01:01:08.418Z,101010.63
2023-05-09T01:04:11.982Z,101016.91
2023-05-09T01:07:25.446Z,101025.06
2023-05-09T01:10:45.504Z,101022.69
2023-05-09T01:14:11.232Z,101012.87
2023-05-09T01:17:29.410Z,101016.81
2023-05-09T01:20:46.602Z,101022.88
2023-05-09T01:24:24.816Z,101014.69
2023-05-09T01:27:53.558Z,101018.00
2023-05-09T01:30:57.441Z,101015.56
2023-05-09T01:34:02.547Z,101014.97
2023-05-09T01:37:06.985Z,101009.84
2023-05-09T01:40:16.919Z,101016.44
2023-05-09T01:43:20.157Z,101007.53
2023-05-09T01:46:24.208Z,101009.44
2023-05-09T01:49:31.002Z,101009.19
2023-05-09T01:52:35.254Z,101000.41
2023-05-09T01:55:39.597Z,101001.53
2023-05-09T01:58:42.697Z,100995.31
2023-05-09T02:01:47.228Z,100995.34
2023-05-09T02:04:50.487Z,101000.00
2023-05-09T02:07:54.718Z,101001.56
2023-05-09T02:10:57.305Z,100990.03
2023-05-09T02:13:59.521Z,100993.50
2023-05-09T02:17:06.292Z,100995.09
2023-05-09T02:20:12.221Z,100991.91
2023-05-09T02:23:14.691Z,100986.88
2023-05-09T02:26:17.669Z,100980.66
2023-05-09T02:29:23.826Z,100980.16
2023-05-09T02:32:30.857Z,100984.50
2023-05-09T02:35:34.194Z,100977.00
2023-05-09T02:38:37.138Z,100979.66
2023-05-09T02:41:39.302Z,100976.47
2023-05-09T02:44:41.764Z,100976.22
2023-05-09T02:47:44.041Z,100973.03
2023-05-09T02:50:46.737Z,100972.25
2023-05-09T02:53:49.105Z,100966.88
2023-05-09T02:56:51.704Z,100964.72
2023-05-09T02:59:53.824Z,100970.16
2023-05-09T03:02:56.347Z,100965.84
2023-05-09T03:05:58.531Z,100963.09
2023-05-09T03:09:01.170Z,100963.66
2023-05-09T03:12:04.715Z,100963.09
2023-05-09T03:15:07.850Z,100962.03
2023-05-09T03:18:11.716Z,100963.06
2023-05-09T03:21:14.196Z,100952.28
2023-05-09T03:24:16.445Z,100952.88
2023-05-09T03:27:19.482Z,100948.28
2023-05-09T03:30:21.793Z,100956.09
2023-05-09T03:33:24.666Z,100955.56
2023-05-09T03:36:27.689Z,100961.75
2023-05-09T03:39:30.430Z,100960.16
2023-05-09T03:42:32.737Z,100965.31
2023-05-09T03:45:38.341Z,100967.47
2023-05-09T03:48:41.445Z,100969.66
2023-05-09T03:51:44.011Z,100969.91
2023-05-09T03:54:46.996Z,100975.53
2023-05-09T03:57:50.423Z,100974.97
2023-05-09T04:00:53.690Z,100968.25
2023-05-09T04:03:57.705Z,100977.72
2023-05-09T04:07:00.356Z,100976.84
2023-05-09T04:10:03.116Z,100980.03
2023-05-09T04:13:05.589Z,100975.72
2023-05-09T04:16:08.347Z,100972.25
2023-05-09T04:19:10.653Z,100979.25
2023-05-09T04:22:13.643Z,100970.28
2023-05-09T04:25:17.066Z,100977.31
2023-05-09T04:28:20.516Z,100982.44
2023-05-09T04:31:23.216Z,100979.87
2023-05-09T04:34:29.610Z,100977.47
2023-05-09T04:37:33.062Z,100974.75
2023-05-09T04:40:36.746Z,100982.50
2023-05-09T04:43:39.488Z,100994.88
2023-05-09T04:46:42.780Z,100990.31
2023-05-09T04:49:45.127Z,100989.63
2023-05-09T04:52:47.599Z,100995.78
2023-05-09T04:55:51.957Z,100980.69
2023-05-09T04:58:54.836Z,100990.94
2023-05-09T05:01:57.235Z,100988.47
2023-05-09T05:05:11.051Z,100985.75
2023-05-09T05:08:15.418Z,100996.44
2023-05-09T05:11:18.129Z,100992.56
2023-05-09T05:14:20.784Z,100996.31
2023-05-09T05:17:24.745Z,101000.38
2023-05-09T05:20:27.723Z,100997.62
2023-05-09T05:23:31.284Z,101004.34
2023-05-09T05:26:33.540Z,100994.56
2023-05-09T05:29:36.564Z,101000.50
2023-05-09T05:32:38.882Z,100995.34
2023-05-09T05:35:42.581Z,100997.72
2023-05-09T05:38:44.700Z,100994.38
2023-05-09T05:41:47.288Z,100993.00
2023-05-09T05:44:49.520Z,100991.91
2023-05-09T05:47:52.910Z,100997.09
2023-05-09T05:50:55.744Z,100996.03
2023-05-09T05:54:01.479Z,100997.47
2023-05-09T05:57:03.816Z,100993.37
2023-05-09T06:00:11.494Z,100994.88
2023-05-09T06:03:16.165Z,100997.25
2023-05-09T06:06:19.785Z,100998.56
2023-05-09T06:09:22.847Z,100999.66
2023-05-09T06:12:28.090Z,100996.09
2023-05-09T06:15:30.919Z,101004.13
2023-05-09T06:18:35.670Z,100997.75
2023-05-09T06:21:37.844Z,101003.09
2023-05-09T06:24:40.346Z,101001.50
2023-05-09T06:27:42.625Z,100993.00
2023-05-09T06:30:45.024Z,100993.75
2023-05-09T06:33:47.453Z,100983.84
2023-05-09T06:36:50.031Z,100981.06
2023-05-09T06:39:52.599Z,100988.19
2023-05-09T06:42:57.241Z,100979.69
2023-05-09T06:45:59.465Z,100980.13
2023-05-09T06:49:02.533Z,100978.63
2023-05-09T06:52:04.805Z,100969.25
2023-05-09T06:55:08.247Z,100974.16
2023-05-09T06:58:11.229Z,100974.47
2023-05-09T07:01:13.923Z,100967.03
2023-05-09T07:04:16.152Z,100963.47
2023-05-09T07:07:18.674Z,100961.12
2023-05-09T07:10:24.292Z,100965.22
2023-05-09T07:13:26.752Z,100953.75
2023-05-09T07:16:29.533Z,100962.37
2023-05-09T07:19:32.014Z,100958.09
2023-05-09T07:22:36.336Z,100954.59
2023-05-09T07:25:39.707Z,100948.25
2023-05-09T07:28:41.928Z,100946.75
2023-05-09T07:31:44.546Z,100948.91
2023-05-09T07:34:47.113Z,100945.56
2023-05-09T07:37:49.892Z,100937.59
2023-05-09T07:40:53.246Z,100927.12
2023-05-09T08:02:26.711Z,100911.84
2023-05-09T08:05:29.266Z,100914.87
2023-05-09T08:11:38.791Z,100908.66
2023-05-09T08:14:41.072Z,100897.22
2023-05-09T08:17:43.510Z,100903.56
2023-05-09T08:23:53.224Z,100895.31
2023-05-09T08:26:55.387Z,100890.59
2023-05-09T08:33:05.021Z,100883.12
2023-05-09T08:36:07.718Z,100887.22
2023-05-09T08:39:09.972Z,100886.06
2023-05-09T08:42:15.887Z,100877.09
2023-05-09T08:45:25.671Z,100880.94
2023-05-09T08:48:28.895Z,100880.03
2023-05-09T08:51:32.297Z,100883.19
2023-05-09T08:54:35.269Z,100883.84
2023-05-09T08:57:37.577Z,100871.78
2023-05-09T09:00:41.569Z,100875.41
2023-05-09T09:03:47.748Z,100875.84
2023-05-09T09:06:51.820Z,100875.31
2023-05-09T09:09:56.530Z,100862.16
2023-05-09T09:13:05.015Z,100859.72
2023-05-09T09:16:17.938Z,100862.31
2023-05-09T09:19:30.144Z,100853.28
2023-05-09T09:22:34.901Z,100855.97
2023-05-09T09:25:37.428Z,100853.22
2023-05-09T09:28:40.100Z,100854.25
2023-05-09T09:31:47.039Z,100851.84
2023-05-09T09:34:50.087Z,100851.19
2023-05-09T09:37:59.880Z,100840.53
2023-05-09T09:41:02.383Z,100843.78
2023-05-09T09:44:09.234Z,100857.09
2023-05-09T09:47:11.625Z,100849.53
2023-05-09T09:50:20.072Z,100850.06
2023-05-09T09:53:23.335Z,100844.78
2023-05-09T09:56:39.455Z,100839.72
2023-05-09T09:59:42.570Z,100833.94
2023-05-09T10:02:52.109Z,100835.47
2023-05-09T10:06:01.993Z,100836.09
2023-05-09T10:09:04.304Z,100825.53
2023-05-09T10:12:08.733Z,100831.97
2023-05-09T10:15:15.550Z,100824.19
2023-05-09T10:18:21.504Z,100818.88
2023-05-09T10:21:23.834Z,100820.13
2023-05-09T10:24:48.437Z,100818.25
2023-05-09T10:27:53.971Z,100814.25
2023-05-09T10:31:08.035Z,100810.47
2023-05-09T10:34:13.049Z,100807.63
2023-05-09T10:37:16.793Z,100807.97
2023-05-09T10:40:20.033Z,100804.03
2023-05-09T10:43:25.027Z,100806.41
2023-05-09T10:46:27.982Z,100805.47
2023-05-09T10:49:31.780Z,100813.72
2023-05-09T10:52:34.277Z,100806.97
2023-05-09T10:55:52.203Z,100808.53
2023-05-09T10:58:54.803Z,100809.34
2023-05-09T11:02:01.012Z,100800.56
2023-05-09T11:05:14.640Z,100807.41
2023-05-09T11:08:29.062Z,100807.31
2023-05-09T11:11:31.468Z,100789.59
2023-05-09T11:14:47.333Z,100797.72
2023-05-09T11:18:09.220Z,100796.03
2023-05-09T11:21:11.762Z,100784.91
2023-05-09T11:24:17.108Z,100781.34
2023-05-09T11:27:21.821Z,100776.44
2023-05-09T11:30:36.356Z,100772.66
2023-05-09T11:33:41.682Z,100777.88
2023-05-09T11:36:47.799Z,100781.12
2023-05-09T11:40:01.383Z,100771.81
2023-05-09T11:43:03.637Z,100769.22
2023-05-09T11:46:06.320Z,100773.03
2023-05-09T11:49:09.561Z,100771.97
2023-05-09T11:52:13.887Z,100773.34
2023-05-09T11:55:19.131Z,100758.31
2023-05-09T11:58:21.968Z,100758.84
2023-05-09T12:01:24.392Z,100762.28
2023-05-09T12:04:30.134Z,100757.22
2023-05-09T12:07:32.772Z,100753.34
2023-05-09T12:10:39.101Z,100743.09
2023-05-09T12:13:45.923Z,100745.13
2023-05-09T12:16:48.471Z,100737.81
2023-05-09T12:19:52.335Z,100735.53
2023-05-09T12:22:54.878Z,100735.66
2023-05-09T12:25:57.574Z,100728.69
2023-05-09T12:29:00.533Z,100735.47
2023-05-09T12:32:03.133Z,100725.16
2023-05-09T12:35:08.615Z,100722.78
2023-05-09T12:38:15.727Z,100717.88
2023-05-09T12:41:34.871Z,100715.03
2023-05-09T12:44:42.792Z,100707.69
2023-05-09T12:47:53.892Z,100710.19
2023-05-09T12:51:03.750Z,100705.37
2023-05-09T12:54:12.567Z,100704.09
2023-05-09T12:57:26.221Z,100701.41
2023-05-09T13:00:47.252Z,100698.25
2023-05-09T13:03:57.547Z,100687.47
2023-05-09T13:07:13.474Z,100684.34
2023-05-09T13:10:29.365Z,100679.12
2023-05-09T13:13:35.310Z,100679.75
2023-05-09T13:16:39.981Z,100676.41
2023-05-09T13:19:47.384Z,100681.63
2023-05-09T13:22:54.330Z,100672.41
2023-05-09T13:26:00.383Z,100665.28
2023-05-09T13:29:02.798Z,100665.56
2023-05-09T13:32:05.657Z,100659.00
2023-05-09T13:35:13.110Z,100659.81
2023-05-09T13:38:15.588Z,100663.00
2023-05-09T13:41:24.732Z,100658.66
2023-05-09T13:44:28.811Z,100655.91
2023-05-09T13:47:31.819Z,100654.16
2023-05-09T13:50:34.393Z,100647.91
2023-05-09T13:53:38.713Z,100640.47
2023-05-09T13:56:42.830Z,100638.78
2023-05-09T13:59:44.999Z,100638.44
2023-05-09T14:02:47.474Z,100630.44
2023-05-09T14:05:50.743Z,100626.09
2023-05-09T14:08:53.074Z,100626.81
2023-05-09T14:11:56.676Z,100618.91
2023-05-09T14:14:58.915Z,100619.50
2023-05-09T14:18:01.588Z,100619.13
2023-05-09T14:21:03.920Z,100630.59
2023-05-09T14:24:06.958Z,100624.28
2023-05-09T14:27:09.136Z,100618.88
2023-05-09T14:30:12.063Z,100618.53
2023-05-09T14:33:14.744Z,100605.47
2023-05-09T14:36:17.511Z,100601.38
2023-05-09T14:39:20.474Z,100599.25
2023-05-09T14:42:22.874Z,100590.66
2023-05-09T14:45:25.672Z,100600.03
2023-05-09T14:48:28.211Z,100600.69
2023-05-09T14:51:31.794Z,100600.22
2023-05-09T14:54:34.814Z,100602.53
2023-05-09T14:57:36.952Z,100596.41
2023-05-09T15:00:39.525Z,100596.09
2023-05-09T15:03:41.877Z,100596.37
2023-05-09T15:06:45.882Z,100582.94
2023-05-09T15:09:48.105Z,100586.41
2023-05-09T15:12:50.552Z,100581.34
2023-05-09T15:15:53.043Z,100581.88
2023-05-09T15:18:55.462Z,100575.72
2023-05-09T15:21:58.765Z,100576.28
2023-05-09T15:25:02.031Z,100573.91
2023-05-09T15:28:05.283Z,100555.53
2023-05-09T15:31:08.447Z,100561.31
2023-05-09T15:34:10.651Z,100553.53
2023-05-09T15:37:13.269Z,100560.38
2023-05-09T15:40:15.817Z,100556.13
2023-05-09T15:43:18.439Z,100549.19
2023-05-09T15:46:20.836Z,100556.63
2023-05-09T15:49:23.304Z,100554.28
2023-05-09T15:52:27.706Z,100549.06
2023-05-09T15:55:31.751Z,100541.53
2023-05-09T15:58:34.821Z,100539.97
2023-05-09T16:01:37.345Z,100538.78
2023-05-09T16:04:39.892Z,100534.41
2023-05-09T16:07:45.815Z,100537.91
2023-05-09T16:10:49.203Z,100531.38
2023-05-09T16:13:51.451Z,100526.50
2023-05-09T16:16:54.480Z,100530.91
2023-05-09T16:19:56.654Z,100533.31
2023-05-09T16:22:59.624Z,100530.22
2023-05-09T16:26:01.729Z,100542.28
2023-05-09T16:29:04.244Z,100536.28
2023-05-09T16:32:07.823Z,100539.19
2023-05-09T16:35:10.527Z,100540.41
2023-05-09T16:38:13.209Z,100532.81
2023-05-09T16:41:15.988Z,100532.44
2023-05-09T16:44:18.106Z,100524.78
2023-05-09T16:47:20.489Z,100521.16
2023-05-09T16:50:23.340Z,100516.72
2023-05-09T16:53:27.697Z,100519.81
2023-05-09T16:56:30.147Z,100514.94
2023-05-09T16:59:32.905Z,100518.13
2023-05-09T17:02:36.287Z,100513.75
2023-05-09T17:05:38.785Z,100511.53
2023-05-09T17:08:41.061Z,100507.66
2023-05-09T17:11:43.689Z,100502.88
2023-05-09T17:14:47.505Z,100506.91
2023-05-09T17:17:49.965Z,100506.25
2023-05-09T17:20:52.272Z,100507.75
2023-05-09T17:23:54.950Z,100505.97
2023-05-09T17:26:57.180Z,100507.06
2023-05-09T17:29:59.611Z,100500.81
2023-05-09T17:33:02.802Z,100512.53
2023-05-09T17:36:06.085Z,100517.09
2023-05-09T17:39:08.302Z,100506.53
2023-05-09T17:42:12.214Z,100512.81
2023-05-09T17:45:14.560Z,100505.22
2023-05-09T17:48:17.004Z,100503.97
2023-05-09T17:51:21.882Z,100505.66
2023-05-09T17:54:24.518Z,100503.78
2023-05-09T17:57:29.639Z,100517.41
2023-05-09T18:00:34.785Z,100513.31
2023-05-09T18:03:36.852Z,100515.13
2023-05-09T18:06:42.061Z,100514.09
2023-05-09T18:09:44.230Z,100513.66
2023-05-09T18:12:49.232Z,100502.63
2023-05-09T18:15:52.980Z,100512.50
2023-05-09T18:18:59.215Z,100512.38
2023-05-09T18:22:05.165Z,100517.16
2023-05-09T18:25:07.967Z,100523.00
2023-05-09T18:28:10.922Z,100517.44
2023-05-09T18:31:13.437Z,100523.41
2023-05-09T18:34:21.522Z,100523.75
2023-05-09T18:37:24.707Z,100524.28
2023-05-09T18:40:27.030Z,100529.28
2023-05-09T18:43:30.713Z,100533.13
2023-05-09T18:46:33.742Z,100537.53
2023-05-09T18:49:36.343Z,100534.31
2023-05-09T18:52:38.492Z,100527.00
2023-05-09T18:55:40.964Z,100542.44
2023-05-09T18:58:43.427Z,100544.34
2023-05-09T19:01:45.893Z,100545.00
2023-05-09T19:04:50.356Z,100540.88
2023-05-09T19:07:54.216Z,100544.75
2023-05-09T19:10:56.461Z,100547.19
2023-05-09T19:14:01.867Z,100548.38
2023-05-09T19:17:07.337Z,100547.03
2023-05-09T19:20:15.955Z,100542.53
2023-05-09T19:23:21.215Z,100542.25
2023-05-09T19:26:23.693Z,100537.31
2023-05-09T19:29:25.872Z,100531.41
2023-05-09T19:32:28.344Z,100542.78
2023-05-09T19:35:30.543Z,100541.09
2023-05-09T19:38:32.999Z,100544.31
2023-05-09T19:41:35.121Z,100537.66
2023-05-09T19:44:38.794Z,100541.50
2023-05-09T19:47:44.171Z,100541.50
2023-05-09T19:50:46.634Z,100536.06
2023-05-09T19:53:48.915Z,100537.22
2023-05-09T19:56:51.325Z,100541.22
2023-05-09T19:59:54.548Z,100534.38
2023-05-09T20:02:57.226Z,100539.97
2023-05-09T20:06:09.054Z,100529.44
2023-05-09T20:09:11.276Z,100525.31
2023-05-09T20:12:14.310Z,100525.47
2023-05-09T20:15:16.474Z,100531.19
2023-05-09T20:18:21.827Z,100531.19
2023-05-09T20:21:26.997Z,100530.25
2023-05-09T20:24:33.076Z,100533.91
2023-05-09T20:27:37.433Z,100528.03
2023-05-09T20:30:39.872Z,100530.12
2023-05-09T20:33:42.071Z,100532.16
2023-05-09T20:36:53.286Z,100519.88
2023-05-09T20:39:55.586Z,100530.00
2023-05-09T20:42:58.002Z,100517.03
2023-05-09T20:46:07.287Z,100520.25
2023-05-09T20:49:09.783Z,100515.63
2023-05-09T20:52:12.179Z,100509.25
2023-05-09T20:55:14.578Z,100502.72
2023-05-09T20:58:16.674Z,100498.25
2023-05-09T21:01:19.172Z,100506.88
2023-05-09T21:04:22.215Z,100498.75
2023-05-09T21:07:24.750Z,100500.84
2023-05-09T21:10:26.910Z,100497.78
2023-05-09T21:13:29.362Z,100491.44
2023-05-09T21:16:31.816Z,100494.44
2023-05-09T21:19:40.410Z,100492.88
2023-05-09T21:22:42.630Z,100504.22
2023-05-09T21:25:46.247Z,100503.09
2023-05-09T21:28:51.362Z,100496.84
2023-05-09T21:31:53.872Z,100494.28
2023-05-09T21:34:55.998Z,100487.59
2023-05-09T21:38:07.270Z,100491.09
2023-05-09T21:41:10.152Z,100494.78
2023-05-09T21:44:18.522Z,100492.53
2023-05-09T21:47:20.772Z,100489.81
2023-05-09T21:50:23.392Z,100494.13
2023-05-09T21:53:25.608Z,100495.72
2023-05-09T21:56:28.001Z,100492.88
2023-05-09T21:59:30.195Z,100498.91
2023-05-09T22:02:34.040Z,100491.41
2023-05-09T22:05:36.800Z,100486.94
2023-05-09T22:08:38.949Z,100488.66
2023-05-09T22:11:41.326Z,100488.28
2023-05-09T22:14:55.727Z,100488.28
2023-05-09T22:17:58.984Z,100484.44
2023-05-09T22:21:04.132Z,100482.50
2023-05-09T22:24:09.339Z,100482.06
2023-05-09T22:27:11.528Z,100476.50
2023-05-09T22:30:17.226Z,100484.44
2023-05-09T22:33:20.133Z,100486.53
2023-05-09T22:36:25.696Z,100483.00
2023-05-09T22:39:27.889Z,100499.94
2023-05-09T22:42:30.330Z,100489.88
2023-05-09T22:45:32.465Z,100485.09
2023-05-09T22:48:34.960Z,100487.47
2023-05-09T22:51:37.154Z,100486.41
2023-05-09T22:54:40.449Z,100483.69
2023-05-09T22:57:42.563Z,100477.13
2023-05-09T23:00:47.467Z,100477.50
2023-05-09T23:03:49.576Z,100480.50
2023-05-09T23:10:50.530Z,100476.06
2023-05-09T23:13:53.304Z,100480.06
2023-05-09T23:16:56.381Z,100472.59
2023-05-09T23:20:00.649Z,100474.34
2023-05-09T23:23:06.691Z,100475.31
2023-05-09T23:26:10.106Z,100475.00
2023-05-09T23:29:12.269Z,100477.25
2023-05-09T23:32:14.783Z,100478.84
2023-05-09T23:35:17.025Z,100475.81
2023-05-09T23:38:19.925Z,100468.78
2023-05-09T23:41:25.016Z,100463.03
2023-05-09T23:44:27.807Z,100468.47
2023-05-09T23:47:29.968Z,100465.13
2023-05-09T23:50:32.557Z,100464.00
2023-05-09T23:53:35.146Z,100458.56
2023-05-09T23:56:39.648Z,100456.97
2023-05-09T23:59:42.523Z,100454.88
